createdAt,value
2024-01-24T00:00:25.531Z,56.13
2024-01-24T00:02:28.269Z,54.76
2024-01-24T00:04:31.059Z,58.15
2024-01-24T00:06:33.896Z,57.50
2024-01-24T00:08:36.630Z,53.25
2024-01-24T00:10:39.382Z,52.13
2024-01-24T00:12:42.127Z,54.06
2024-01-24T00:14:44.876Z,58.65
2024-01-24T00:16:47.598Z,60.65
2024-01-24T00:18:50.482Z,61.14
2024-01-24T00:20:55.315Z,62.87
2024-01-24T00:22:58.139Z,56.61
2024-01-24T00:25:00.863Z,53.77
2024-01-24T00:27:03.680Z,54.85
2024-01-24T00:29:06.414Z,54.54
2024-01-24T00:31:09.546Z,53.00
2024-01-24T00:33:12.403Z,50.66
2024-01-24T00:35:15.299Z,49.75
2024-01-24T00:37:18.104Z,48.59
2024-01-24T00:39:20.856Z,46.65
2024-01-24T00:41:23.693Z,50.25
2024-01-24T00:43:27.216Z,53.34
2024-01-24T00:45:30.044Z,55.64
2024-01-24T00:47:32.996Z,56.35
2024-01-24T00:49:35.833Z,56.45
2024-01-24T00:51:38.902Z,55.59
2024-01-24T00:53:41.699Z,54.33
2024-01-24T00:55:47.163Z,54.25
2024-01-24T00:57:50.062Z,50.87
2024-01-24T00:59:52.825Z,49.30
2024-01-24T01:01:55.622Z,47.69
2024-01-24T01:03:58.484Z,46.32
2024-01-24T01:06:01.270Z,46.24
2024-01-24T01:08:04.317Z,50.72
2024-01-24T01:10:09.608Z,48.75
2024-01-24T01:12:12.408Z,51.17
2024-01-24T01:14:15.172Z,50.65
2024-01-24T01:16:17.908Z,49.87
2024-01-24T01:18:20.662Z,53.30
2024-01-24T01:20:23.394Z,57.45
2024-01-24T01:22:26.190Z,53.52
2024-01-24T01:24:28.961Z,43.17
2024-01-24T01:26:34.020Z,50.19
2024-01-24T01:28:36.770Z,58.92
2024-01-24T01:30:40.154Z,58.34
2024-01-24T01:32:43.268Z,54.63
2024-01-24T01:34:46.130Z,52.52
2024-01-24T01:36:48.959Z,48.84
2024-01-24T01:38:51.780Z,47.35
2024-01-24T01:40:54.541Z,50.23
2024-01-24T01:42:57.846Z,48.23
2024-01-24T01:45:00.617Z,48.49
2024-01-24T01:47:03.907Z,47.23
2024-01-24T01:49:08.334Z,42.38
2024-01-24T01:51:12.601Z,43.83
2024-01-24T01:53:17.141Z,47.99
2024-01-24T01:55:20.078Z,52.43
2024-01-24T01:57:22.958Z,49.52
2024-01-24T01:59:27.069Z,49.60
2024-01-24T02:01:30.039Z,51.53
2024-01-24T02:03:33.221Z,48.77
2024-01-24T02:05:38.902Z,50.13
2024-01-24T02:07:45.308Z,49.94
2024-01-24T02:09:48.300Z,47.66
2024-01-24T02:11:51.158Z,48.30
2024-01-24T02:14:00.678Z,49.67
2024-01-24T02:16:04.776Z,48.77
2024-01-24T02:18:07.675Z,49.06
2024-01-24T02:20:13.575Z,52.01
2024-01-24T02:22:16.351Z,50.98
2024-01-24T02:24:19.174Z,46.28
2024-01-24T02:26:21.961Z,44.18
2024-01-24T02:28:24.984Z,43.06
2024-01-24T02:30:27.784Z,41.25
2024-01-24T02:32:30.578Z,37.36
2024-01-24T02:34:33.542Z,29.88
2024-01-24T02:36:36.501Z,31.12
2024-01-24T02:38:39.245Z,29.70
2024-01-24T02:40:42.145Z,33.52
2024-01-24T02:42:44.936Z,38.38
2024-01-24T02:44:47.831Z,37.56
2024-01-24T02:46:50.588Z,40.23
2024-01-24T02:48:53.474Z,39.64
2024-01-24T02:50:56.310Z,39.05
2024-01-24T02:52:59.165Z,38.00
2024-01-24T02:55:02.078Z,37.98
2024-01-24T02:57:05.997Z,34.66
2024-01-24T02:59:08.789Z,33.43
2024-01-24T03:01:11.706Z,32.53
2024-01-24T03:03:14.549Z,32.68
2024-01-24T03:05:17.359Z,33.03
2024-01-24T03:07:20.131Z,33.49
2024-01-24T03:09:23.468Z,34.41
2024-01-24T03:11:26.519Z,36.07
2024-01-24T03:13:29.326Z,39.56
2024-01-24T03:15:32.182Z,40.29
2024-01-24T03:17:35.258Z,37.18
2024-01-24T03:19:38.114Z,37.60
2024-01-24T03:21:41.763Z,36.96
2024-01-24T03:23:45.172Z,36.41
2024-01-24T03:25:47.923Z,32.79
2024-01-24T03:27:50.718Z,32.00
2024-01-24T03:29:53.610Z,31.14
2024-01-24T03:31:56.336Z,32.82
2024-01-24T03:33:59.207Z,33.17
2024-01-24T03:36:02.009Z,31.93
2024-01-24T03:38:05.566Z,32.05
2024-01-24T03:40:08.937Z,33.39
2024-01-24T03:42:11.687Z,38.12
2024-01-24T03:44:14.471Z,44.48
2024-01-24T03:46:21.384Z,45.70
2024-01-24T03:48:24.387Z,44.80
2024-01-24T03:50:27.176Z,43.47
2024-01-24T03:52:30.293Z,45.13
2024-01-24T03:54:33.099Z,45.91
2024-01-24T03:56:35.875Z,44.45
2024-01-24T03:58:38.807Z,44.14
2024-01-24T04:00:41.629Z,44.95
2024-01-24T04:02:44.446Z,45.15
2024-01-24T04:04:47.217Z,39.64
2024-01-24T04:06:50.208Z,37.55
2024-01-24T04:08:53.060Z,39.97
2024-01-24T04:10:55.974Z,39.95
2024-01-24T04:12:58.750Z,41.61
2024-01-24T04:15:01.622Z,42.51
2024-01-24T04:17:04.373Z,42.46
2024-01-24T04:19:07.928Z,41.01
2024-01-24T04:21:10.700Z,42.13
2024-01-24T04:23:13.493Z,41.15
2024-01-24T04:25:16.403Z,40.80
2024-01-24T04:27:19.457Z,41.14
2024-01-24T04:29:22.209Z,40.93
2024-01-24T04:31:24.949Z,41.11
2024-01-24T04:33:27.769Z,42.11
2024-01-24T04:35:30.664Z,42.61
2024-01-24T04:37:33.407Z,42.60
2024-01-24T04:39:36.165Z,42.90
2024-01-24T04:41:41.294Z,42.92
2024-01-24T04:43:44.288Z,45.44
2024-01-24T04:45:47.163Z,47.68
2024-01-24T04:47:49.972Z,46.69
2024-01-24T04:49:52.843Z,44.46
2024-01-24T04:51:55.696Z,44.50
2024-01-24T04:53:58.462Z,44.34
2024-01-24T04:56:01.237Z,43.92
2024-01-24T04:58:04.500Z,46.46
2024-01-24T05:00:09.274Z,46.48
2024-01-24T05:02:12.018Z,47.10
2024-01-24T05:04:14.857Z,49.53
2024-01-24T05:06:17.745Z,49.55
2024-01-24T05:08:20.524Z,48.85
2024-01-24T05:10:23.277Z,47.56
2024-01-24T05:12:26.073Z,44.99
2024-01-24T05:14:29.515Z,44.98
2024-01-24T05:16:32.284Z,43.09
2024-01-24T05:18:35.143Z,44.38
2024-01-24T05:20:38.411Z,45.40
2024-01-24T05:22:41.184Z,44.63
2024-01-24T05:24:47.429Z,42.54
2024-01-24T05:26:50.197Z,42.85
2024-01-24T05:28:52.969Z,41.61
2024-01-24T05:30:55.817Z,40.41
2024-01-24T05:32:59.234Z,37.07
2024-01-24T05:35:02.225Z,35.39
2024-01-24T05:37:05.112Z,38.75
2024-01-24T05:39:08.818Z,35.85
2024-01-24T05:41:11.780Z,35.66
2024-01-24T05:43:14.559Z,33.56
2024-01-24T05:45:17.315Z,33.93
2024-01-24T05:47:20.060Z,32.35
2024-01-24T05:49:22.907Z,30.09
2024-01-24T05:51:25.764Z,30.02
2024-01-24T05:53:28.863Z,31.49
2024-01-24T05:55:31.672Z,37.71
2024-01-24T05:57:34.429Z,42.97
2024-01-24T05:59:37.328Z,41.62
2024-01-24T06:01:40.273Z,41.50
2024-01-24T06:03:43.208Z,38.56
2024-01-24T06:05:46.240Z,41.61
2024-01-24T06:07:50.933Z,43.18
2024-01-24T06:09:53.828Z,36.31
2024-01-24T06:11:56.662Z,30.75
2024-01-24T06:13:59.509Z,27.69
2024-01-24T06:16:02.999Z,29.58
2024-01-24T06:18:05.973Z,26.98
2024-01-24T06:20:10.420Z,26.40
2024-01-24T06:22:13.210Z,24.94
2024-01-24T06:24:16.285Z,19.20
2024-01-24T06:26:19.109Z,16.43
2024-01-24T06:28:21.850Z,15.15
2024-01-24T06:30:26.745Z,13.75
2024-01-24T06:32:30.929Z,15.08
2024-01-24T06:34:33.763Z,13.56
2024-01-24T06:36:36.707Z,13.80
2024-01-24T06:38:39.472Z,12.32
2024-01-24T06:40:42.366Z,11.66
2024-01-24T06:42:45.128Z,12.33
2024-01-24T06:44:47.868Z,12.63
2024-01-24T06:46:50.645Z,11.87
2024-01-24T06:48:53.777Z,11.80
2024-01-24T06:50:56.676Z,11.89
2024-01-24T06:52:59.822Z,12.42
2024-01-24T06:55:03.077Z,12.46
2024-01-24T06:57:05.820Z,12.53
2024-01-24T06:59:08.599Z,12.77
2024-01-24T07:01:14.793Z,12.02
2024-01-24T07:03:20.368Z,12.82
2024-01-24T07:05:24.996Z,12.53
2024-01-24T07:07:27.804Z,13.18
2024-01-24T07:09:30.710Z,13.14
2024-01-24T07:11:33.605Z,13.48
2024-01-24T07:13:37.829Z,13.75
2024-01-24T07:15:41.000Z,15.72
2024-01-24T07:17:44.159Z,15.17
2024-01-24T07:19:48.367Z,14.54
2024-01-24T07:21:52.296Z,14.99
2024-01-24T07:23:55.602Z,13.25
2024-01-24T07:25:58.704Z,14.35
2024-01-24T07:28:01.479Z,14.77
2024-01-24T07:30:05.727Z,16.72
2024-01-24T07:32:11.166Z,17.31
2024-01-24T07:34:14.010Z,17.73
2024-01-24T07:36:17.056Z,15.91
2024-01-24T07:38:20.054Z,14.85
2024-01-24T07:40:22.789Z,16.16
2024-01-24T07:42:25.535Z,16.95
2024-01-24T07:44:28.319Z,16.38
2024-01-24T07:46:33.931Z,16.81
2024-01-24T07:48:37.541Z,16.93
2024-01-24T07:50:40.518Z,16.95
2024-01-24T07:52:44.754Z,16.81
2024-01-24T07:54:47.670Z,17.31
2024-01-24T07:56:50.473Z,17.35
2024-01-24T07:58:54.414Z,16.41
2024-01-24T08:00:57.392Z,17.95
2024-01-24T08:03:00.406Z,20.27
2024-01-24T08:05:03.882Z,22.00
2024-01-24T08:07:07.010Z,28.51
2024-01-24T08:09:11.240Z,27.76
2024-01-24T08:11:16.442Z,34.34
2024-01-24T08:13:20.233Z,39.75
2024-01-24T08:15:23.030Z,40.15
2024-01-24T08:17:26.597Z,35.07
2024-01-24T08:19:29.646Z,27.08
2024-01-24T08:21:32.890Z,26.31
2024-01-24T08:23:42.878Z,25.93
2024-01-24T08:25:51.946Z,25.00
2024-01-24T08:27:54.885Z,25.99
2024-01-24T08:29:58.369Z,26.63
2024-01-24T08:32:01.345Z,25.25
2024-01-24T08:34:04.309Z,23.96
2024-01-24T08:36:07.140Z,23.45
2024-01-24T08:38:10.974Z,22.56
2024-01-24T08:40:13.783Z,22.67
2024-01-24T08:42:16.649Z,23.19
2024-01-24T08:44:19.564Z,24.45
2024-01-24T08:46:22.360Z,25.61
2024-01-24T08:48:26.292Z,24.76
2024-01-24T08:50:29.197Z,22.70
2024-01-24T08:52:36.165Z,23.30
2024-01-24T08:54:39.567Z,26.00
2024-01-24T08:56:42.614Z,24.71
2024-01-24T08:58:45.781Z,23.98
2024-01-24T09:00:48.731Z,24.95
2024-01-24T09:02:51.832Z,22.64
2024-01-24T09:04:56.366Z,22.90
2024-01-24T09:06:59.301Z,22.35
2024-01-24T09:09:02.258Z,22.95
2024-01-24T09:11:05.591Z,21.72
2024-01-24T09:13:08.556Z,22.23
2024-01-24T09:15:11.439Z,21.50
2024-01-24T09:17:14.981Z,21.01
2024-01-24T09:19:18.192Z,21.70
2024-01-24T09:21:21.129Z,21.41
2024-01-24T09:23:24.006Z,21.83
2024-01-24T09:25:26.936Z,22.70
2024-01-24T09:27:30.241Z,24.20
2024-01-24T09:29:33.048Z,24.51
2024-01-24T09:31:35.885Z,26.07
2024-01-24T09:33:40.191Z,23.55
2024-01-24T09:35:45.316Z,22.35
2024-01-24T09:37:48.166Z,22.27
2024-01-24T09:39:52.282Z,22.46
2024-01-24T09:41:57.089Z,22.62
2024-01-24T09:44:05.106Z,24.20
2024-01-24T09:46:13.589Z,50.77
2024-01-24T09:48:18.156Z,29.93
2024-01-24T09:50:23.289Z,43.26
2024-01-24T09:52:28.064Z,23.99
2024-01-24T09:54:32.739Z,35.69
2024-01-24T09:56:39.753Z,49.65
2024-01-24T09:58:42.584Z,33.06
2024-01-24T10:00:45.772Z,32.71
2024-01-24T10:02:48.982Z,35.45
2024-01-24T10:04:53.479Z,35.54
2024-01-24T10:06:56.986Z,42.90
2024-01-24T10:09:00.552Z,32.81
2024-01-24T10:11:03.436Z,27.36
2024-01-24T10:13:07.833Z,28.14
2024-01-24T10:15:11.475Z,23.35
2024-01-24T10:17:14.961Z,21.34
2024-01-24T10:19:22.568Z,20.98
2024-01-24T10:21:27.236Z,19.85
2024-01-24T10:23:30.710Z,19.35
2024-01-24T10:25:33.543Z,27.35
2024-01-24T10:27:38.731Z,38.18
2024-01-24T10:29:44.196Z,33.75
2024-01-24T10:31:47.451Z,25.81
2024-01-24T10:33:55.273Z,24.59
2024-01-24T10:36:03.038Z,23.24
2024-01-24T10:38:13.828Z,24.43
2024-01-24T10:40:17.721Z,26.99
2024-01-24T10:42:23.825Z,21.73
2024-01-24T10:44:26.856Z,18.32
2024-01-24T10:46:30.258Z,25.06
2024-01-24T10:48:36.410Z,25.05
2024-01-24T10:50:51.649Z,21.84
2024-01-24T10:53:00.202Z,21.60
2024-01-24T10:55:14.761Z,18.33
2024-01-24T10:57:23.495Z,20.49
2024-01-24T10:59:36.597Z,21.25
2024-01-24T11:01:39.463Z,16.57
2024-01-24T11:03:43.912Z,16.55
2024-01-24T11:05:57.878Z,18.04
2024-01-24T11:08:23.682Z,21.73
2024-01-24T11:10:35.393Z,18.91
2024-01-24T11:12:38.334Z,21.38
2024-01-24T11:14:46.683Z,22.21
2024-01-24T11:16:49.506Z,18.63
2024-01-24T11:18:53.063Z,18.10
2024-01-24T11:21:01.094Z,17.28
2024-01-24T11:23:36.486Z,16.85
2024-01-24T11:25:39.554Z,15.37
2024-01-24T11:27:44.893Z,14.66
2024-01-24T11:29:47.780Z,14.50
2024-01-24T11:31:50.694Z,15.05
2024-01-24T11:34:15.554Z,14.62
2024-01-24T11:36:18.628Z,34.05
2024-01-24T11:38:26.675Z,24.65
2024-01-24T11:40:37.474Z,28.46
2024-01-24T11:42:44.585Z,21.17
2024-01-24T11:44:48.484Z,24.54
2024-01-24T11:46:53.113Z,23.03
2024-01-24T11:49:05.557Z,19.01
2024-01-24T11:51:11.858Z,19.08
2024-01-24T11:53:14.611Z,17.91
2024-01-24T11:55:17.416Z,23.29
2024-01-24T11:57:20.467Z,22.16
2024-01-24T11:59:23.315Z,19.22
2024-01-24T12:01:26.323Z,19.77
2024-01-24T12:03:29.235Z,25.83
2024-01-24T12:05:32.058Z,23.84
2024-01-24T12:07:35.070Z,18.44
2024-01-24T12:09:37.952Z,22.66
2024-01-24T12:11:40.732Z,34.18
2024-01-24T12:13:43.743Z,29.67
2024-01-24T12:15:47.398Z,41.74
2024-01-24T12:17:50.481Z,58.16
2024-01-24T12:19:54.423Z,57.80
2024-01-24T12:21:59.529Z,74.26
2024-01-24T12:24:02.751Z,68.95
2024-01-24T12:26:05.864Z,36.03
2024-01-24T12:28:09.382Z,33.25
2024-01-24T12:30:14.308Z,41.06
2024-01-24T12:32:18.610Z,50.57
2024-01-24T12:34:22.690Z,45.27
2024-01-24T12:36:26.100Z,43.05
2024-01-24T12:38:29.038Z,34.93
2024-01-24T12:40:33.027Z,39.55
2024-01-24T12:42:36.476Z,50.39
2024-01-24T12:44:39.535Z,17.70
2024-01-24T12:46:42.400Z,62.78
2024-01-24T12:48:48.643Z,46.27
2024-01-24T12:50:51.838Z,30.48
2024-01-24T12:52:54.940Z,34.35
2024-01-24T12:54:57.796Z,27.23
2024-01-24T12:57:00.644Z,18.40
2024-01-24T12:59:03.598Z,21.34
2024-01-24T13:01:06.551Z,44.67
2024-01-24T13:03:09.341Z,20.19
2024-01-24T13:05:12.415Z,27.23
2024-01-24T13:07:15.530Z,48.27
2024-01-24T13:09:18.849Z,185.43
2024-01-24T13:11:21.727Z,105.54
2024-01-24T13:13:24.663Z,90.58
2024-01-24T13:15:27.519Z,50.30
2024-01-24T13:17:30.366Z,48.84
2024-01-24T13:19:33.373Z,56.17
2024-01-24T13:21:40.431Z,44.65
2024-01-24T13:23:45.525Z,31.45
2024-01-24T13:25:48.433Z,31.57
2024-01-24T13:27:51.312Z,21.65
2024-01-24T13:29:54.565Z,37.79
2024-01-24T13:31:57.382Z,29.12
2024-01-24T13:34:00.319Z,58.27
2024-01-24T13:36:03.263Z,25.16
2024-01-24T13:38:06.043Z,20.25
2024-01-24T13:40:13.149Z,25.16
2024-01-24T13:42:16.693Z,43.94
2024-01-24T13:44:19.520Z,34.10
2024-01-24T13:46:22.369Z,24.55
2024-01-24T13:48:25.345Z,18.83
2024-01-24T13:50:28.219Z,14.03
2024-01-24T13:52:31.244Z,15.89
2024-01-24T13:54:34.044Z,17.95
2024-01-24T13:56:36.964Z,19.61
2024-01-24T13:58:39.816Z,25.84
2024-01-24T14:00:43.450Z,40.15
2024-01-24T14:02:46.893Z,30.39
2024-01-24T14:04:50.924Z,23.41
2024-01-24T14:06:54.483Z,40.60
2024-01-24T14:08:57.603Z,18.64
2024-01-24T14:11:00.744Z,10.14
2024-01-24T14:13:04.196Z,11.33
2024-01-24T14:15:15.412Z,10.73
2024-01-24T14:17:26.590Z,11.03
2024-01-24T14:19:29.529Z,15.15
2024-01-24T14:21:33.702Z,39.04
2024-01-24T14:23:36.545Z,25.79
2024-01-24T14:25:39.503Z,65.09
2024-01-24T14:27:44.221Z,134.05
2024-01-24T14:29:47.080Z,81.14
2024-01-24T14:31:49.800Z,38.55
2024-01-24T14:33:52.798Z,26.29
2024-01-24T14:35:55.616Z,17.19
2024-01-24T14:37:59.298Z,18.09
2024-01-24T14:40:02.352Z,18.17
2024-01-24T14:42:08.545Z,17.03
2024-01-24T14:44:11.509Z,14.39
2024-01-24T14:46:14.265Z,14.50
2024-01-24T14:48:17.082Z,14.12
2024-01-24T14:50:19.895Z,14.95
2024-01-24T14:52:22.709Z,19.57
2024-01-24T14:54:25.666Z,18.17
2024-01-24T14:56:28.441Z,15.86
2024-01-24T14:58:31.327Z,18.30
2024-01-24T15:00:34.201Z,24.55
2024-01-24T15:02:40.659Z,24.46
2024-01-24T15:04:43.590Z,20.24
2024-01-24T15:06:46.502Z,17.55
2024-01-24T15:08:49.277Z,20.61
2024-01-24T15:10:52.174Z,22.24
2024-01-24T15:12:55.145Z,19.06
2024-01-24T15:14:57.881Z,20.65
2024-01-24T15:17:00.785Z,70.44
2024-01-24T15:19:04.522Z,20.72
2024-01-24T15:21:11.507Z,27.38
2024-01-24T15:23:16.355Z,17.65
2024-01-24T15:25:19.902Z,16.65
2024-01-24T15:27:25.091Z,17.04
2024-01-24T15:29:29.193Z,17.01
2024-01-24T15:31:32.281Z,18.01
2024-01-24T15:33:35.586Z,21.22
2024-01-24T15:35:38.766Z,19.84
2024-01-24T15:37:42.850Z,19.09
2024-01-24T15:39:45.834Z,21.47
2024-01-24T15:41:48.690Z,19.57
2024-01-24T15:43:51.456Z,14.61
2024-01-24T15:45:54.748Z,14.42
2024-01-24T15:47:57.747Z,15.13
2024-01-24T15:50:00.991Z,16.88
2024-01-24T15:52:04.082Z,20.49
2024-01-24T15:54:06.923Z,23.84
2024-01-24T15:56:10.212Z,30.53
2024-01-24T15:58:13.018Z,71.56
2024-01-24T16:00:16.770Z,62.05
2024-01-24T16:02:19.585Z,40.86
2024-01-24T16:04:22.795Z,94.75
2024-01-24T16:06:26.116Z,62.03
2024-01-24T16:08:29.202Z,109.05
2024-01-24T16:10:32.284Z,84.20
2024-01-24T16:12:35.092Z,52.65
2024-01-24T16:14:37.903Z,44.98
2024-01-24T16:16:40.641Z,35.75
2024-01-24T16:18:44.550Z,34.05
2024-01-24T16:20:47.360Z,36.17
2024-01-24T16:22:55.512Z,40.52
2024-01-24T16:24:59.835Z,46.05
2024-01-24T16:27:02.579Z,44.86
2024-01-24T16:29:05.341Z,45.73
2024-01-24T16:31:08.153Z,39.54
2024-01-24T16:33:11.397Z,39.81
2024-01-24T16:35:15.217Z,70.89
2024-01-24T16:37:18.090Z,89.94
2024-01-24T16:39:20.885Z,49.23
2024-01-24T16:41:23.655Z,58.46
2024-01-24T16:43:37.954Z,61.73
2024-01-24T16:45:40.965Z,36.65
2024-01-24T16:47:46.138Z,37.24
2024-01-24T16:49:49.507Z,31.29
2024-01-24T16:51:52.494Z,25.14
2024-01-24T16:53:55.834Z,25.56
2024-01-24T16:55:58.712Z,23.12
2024-01-24T16:58:01.502Z,18.05
2024-01-24T17:00:05.585Z,21.96
2024-01-24T17:02:08.356Z,42.17
2024-01-24T17:04:11.239Z,27.85
2024-01-24T17:06:14.084Z,21.76
2024-01-24T17:08:16.881Z,29.47
2024-01-24T17:10:19.632Z,26.80
2024-01-24T17:12:23.136Z,24.47
2024-01-24T17:14:25.984Z,22.35
2024-01-24T17:16:28.736Z,20.91
2024-01-24T17:18:31.873Z,21.40
2024-01-24T17:20:34.753Z,13.68
2024-01-24T17:22:37.488Z,14.35
2024-01-24T17:24:40.254Z,23.90
2024-01-24T17:26:43.023Z,25.30
2024-01-24T17:28:45.968Z,19.76
2024-01-24T17:30:49.009Z,25.94
2024-01-24T17:32:52.047Z,21.06
2024-01-24T17:34:55.143Z,18.41
2024-01-24T17:36:57.972Z,14.35
2024-01-24T17:39:01.009Z,13.93
2024-01-24T17:41:04.800Z,14.85
2024-01-24T17:43:07.680Z,16.17
2024-01-24T17:45:11.113Z,16.31
2024-01-24T17:47:13.999Z,14.46
2024-01-24T17:49:17.315Z,16.32
2024-01-24T17:51:21.480Z,17.52
2024-01-24T17:53:24.275Z,18.69
2024-01-24T17:55:29.354Z,17.55
2024-01-24T17:57:33.410Z,19.28
2024-01-24T17:59:36.711Z,21.95
2024-01-24T18:01:40.202Z,20.30
2024-01-24T18:03:43.634Z,19.47
2024-01-24T18:05:47.051Z,14.02
2024-01-24T18:07:50.180Z,17.82
2024-01-24T18:09:56.496Z,16.22
2024-01-24T18:11:59.912Z,20.90
2024-01-24T18:14:03.141Z,22.29
2024-01-24T18:16:06.676Z,30.75
2024-01-24T18:18:11.365Z,24.95
2024-01-24T18:20:14.607Z,22.17
2024-01-24T18:22:17.601Z,21.74
2024-01-24T18:24:20.562Z,21.71
2024-01-24T18:26:23.627Z,19.36
2024-01-24T18:28:27.173Z,19.49
2024-01-24T18:30:31.154Z,21.07
2024-01-24T18:32:35.762Z,20.24
2024-01-24T18:34:39.710Z,20.47
2024-01-24T18:36:43.269Z,24.11
2024-01-24T18:38:47.079Z,23.37
2024-01-24T18:40:50.907Z,29.44
2024-01-24T18:42:54.555Z,27.96
2024-01-24T18:44:58.936Z,28.94
2024-01-24T18:47:02.409Z,27.81
2024-01-24T18:49:05.772Z,26.44
2024-01-24T18:51:10.915Z,31.64
2024-01-24T18:53:14.543Z,28.32
2024-01-24T18:55:19.038Z,25.93
2024-01-24T18:57:28.460Z,22.83
2024-01-24T18:59:32.779Z,20.97
2024-01-24T19:01:39.364Z,20.19
2024-01-24T19:03:43.433Z,22.57
2024-01-24T19:05:47.972Z,24.59
2024-01-24T19:07:52.723Z,22.53
2024-01-24T19:09:59.013Z,20.78
2024-01-24T19:12:02.668Z,21.46
2024-01-24T19:14:06.436Z,23.11
2024-01-24T19:16:10.053Z,36.08
2024-01-24T19:18:17.306Z,32.39
2024-01-24T19:20:22.533Z,26.39
2024-01-24T19:22:26.139Z,25.14
2024-01-24T19:24:29.687Z,26.62
2024-01-24T19:26:36.002Z,26.15
2024-01-24T19:28:40.300Z,30.75
2024-01-24T19:30:44.046Z,38.54
2024-01-24T19:32:48.929Z,38.65
2024-01-24T19:34:54.391Z,36.84
2024-01-24T19:36:58.263Z,36.29
2024-01-24T19:39:02.096Z,36.57
2024-01-24T19:41:06.116Z,34.81
2024-01-24T19:43:11.727Z,32.56
2024-01-24T19:45:15.704Z,31.91
2024-01-24T19:47:21.315Z,31.35
2024-01-24T19:49:25.903Z,30.97
2024-01-24T19:51:30.235Z,32.41
2024-01-24T19:53:34.953Z,32.71
2024-01-24T19:55:39.383Z,31.30
2024-01-24T19:57:43.375Z,30.72
2024-01-24T19:59:48.809Z,32.27
2024-01-24T20:01:53.392Z,32.55
2024-01-24T20:03:57.206Z,33.06
2024-01-24T20:06:04.272Z,33.40
2024-01-24T20:08:08.424Z,33.95
2024-01-24T20:10:12.585Z,45.47
2024-01-24T20:12:18.006Z,47.70
2024-01-24T20:14:22.773Z,45.86
2024-01-24T20:16:27.032Z,46.88
2024-01-24T20:18:31.253Z,49.45
2024-01-24T20:20:35.540Z,44.08
2024-01-24T20:22:39.457Z,42.03
2024-01-24T20:24:44.978Z,42.24
2024-01-24T20:26:49.877Z,52.30
2024-01-24T20:28:54.572Z,57.20
2024-01-24T20:30:58.723Z,55.36
2024-01-24T20:33:05.193Z,48.84
2024-01-24T20:35:10.260Z,46.45
2024-01-24T20:37:14.553Z,40.92
2024-01-24T20:39:20.056Z,40.02
2024-01-24T20:41:25.011Z,36.09
2024-01-24T20:43:29.933Z,37.49
2024-01-24T20:45:35.681Z,35.75
2024-01-24T20:47:39.878Z,33.95
2024-01-24T20:49:44.065Z,33.85
2024-01-24T20:51:50.438Z,32.52
2024-01-24T20:53:54.227Z,30.84
2024-01-24T20:55:58.137Z,31.45
2024-01-24T20:58:01.804Z,30.56
2024-01-24T21:00:08.379Z,29.40
2024-01-24T21:02:12.254Z,26.70
2024-01-24T21:04:16.405Z,24.93
2024-01-24T21:06:23.742Z,24.39
2024-01-24T21:08:27.378Z,22.98
2024-01-24T21:10:30.767Z,21.01
2024-01-24T21:12:34.035Z,20.23
2024-01-24T21:14:37.408Z,20.42
2024-01-24T21:16:40.610Z,19.92
2024-01-24T21:18:45.073Z,16.85
2024-01-24T21:20:48.165Z,15.15
2024-01-24T21:22:51.168Z,14.68
2024-01-24T21:24:54.481Z,15.45
2024-01-24T21:26:57.387Z,15.75
2024-01-24T21:29:00.194Z,14.93
2024-01-24T21:31:03.068Z,14.66
2024-01-24T21:33:05.907Z,13.69
2024-01-24T21:35:10.440Z,13.47
2024-01-24T21:37:13.289Z,13.81
2024-01-24T21:39:16.080Z,12.97
2024-01-24T21:41:18.821Z,13.92
2024-01-24T21:43:22.781Z,13.09
2024-01-24T21:45:25.511Z,12.74
2024-01-24T21:47:28.574Z,12.39
2024-01-24T21:49:32.461Z,12.64
2024-01-24T21:51:35.231Z,12.01
2024-01-24T21:53:37.962Z,10.92
2024-01-24T21:55:40.795Z,11.03
2024-01-24T21:57:50.022Z,11.38
2024-01-24T21:59:54.088Z,11.78
2024-01-24T22:01:57.401Z,10.97
2024-01-24T22:04:00.451Z,10.29
2024-01-24T22:06:03.407Z,9.07
2024-01-24T22:08:07.958Z,8.47
2024-01-24T22:10:10.762Z,8.73
2024-01-24T22:12:13.909Z,9.75
2024-01-24T22:14:16.649Z,8.83
2024-01-24T22:16:19.536Z,9.04
2024-01-24T22:18:25.273Z,8.87
2024-01-24T22:20:32.849Z,8.56
2024-01-24T22:22:36.590Z,7.69
2024-01-24T22:24:39.551Z,7.55
2024-01-24T22:26:42.662Z,7.22
2024-01-24T22:28:45.406Z,7.55
2024-01-24T22:30:48.977Z,7.84
2024-01-24T22:32:51.749Z,7.22
2024-01-24T22:34:54.635Z,7.73
2024-01-24T22:36:57.439Z,7.11
2024-01-24T22:39:00.251Z,7.15
2024-01-24T22:41:02.957Z,7.53
2024-01-24T22:43:05.728Z,6.95
2024-01-24T22:45:08.818Z,6.56
2024-01-24T22:47:11.525Z,6.62
2024-01-24T22:49:14.595Z,6.60
2024-01-24T22:51:17.378Z,6.81
2024-01-24T22:53:20.114Z,6.08
2024-01-24T22:55:22.993Z,8.75
2024-01-24T22:57:25.776Z,6.06
2024-01-24T22:59:28.495Z,6.72
2024-01-24T23:01:32.087Z,6.40
2024-01-24T23:03:34.953Z,5.54
2024-01-24T23:05:37.834Z,5.83
2024-01-24T23:07:41.754Z,5.08
2024-01-24T23:09:44.620Z,4.85
2024-01-24T23:11:47.416Z,4.18
2024-01-24T23:13:50.126Z,4.45
2024-01-24T23:15:53.349Z,4.22
2024-01-24T23:17:56.143Z,4.06
2024-01-24T23:19:59.088Z,3.51
2024-01-24T23:22:01.960Z,3.80
2024-01-24T23:24:05.072Z,4.30
2024-01-24T23:26:07.814Z,4.21
2024-01-24T23:28:10.535Z,4.48
2024-01-24T23:30:13.574Z,4.38
2024-01-24T23:32:16.765Z,4.32
2024-01-24T23:34:19.661Z,4.64
2024-01-24T23:36:22.469Z,4.49
2024-01-24T23:38:25.356Z,5.00
2024-01-24T23:40:28.227Z,5.19
2024-01-24T23:42:31.056Z,5.99
2024-01-24T23:44:35.506Z,5.86
2024-01-24T23:46:38.492Z,5.42
2024-01-24T23:48:41.361Z,5.25
2024-01-24T23:50:44.624Z,5.41
2024-01-24T23:52:47.570Z,4.77
2024-01-24T23:54:50.351Z,4.52
2024-01-24T23:56:53.092Z,4.20
2024-01-24T23:58:55.815Z,3.59
